createdAt,value
2017-11-04T00:01:34.907Z,16.87
2017-11-04T00:04:02.537Z,18.17
2017-11-04T00:06:30.106Z,16.83
2017-11-04T00:08:57.721Z,16.73
2017-11-04T00:11:25.324Z,17.00
2017-11-04T00:13:53.126Z,16.33
2017-11-04T00:16:20.715Z,17.07
2017-11-04T00:18:48.270Z,14.23
2017-11-04T00:21:15.876Z,15.33
2017-11-04T00:23:43.506Z,15.40
2017-11-04T00:26:11.093Z,15.53
2017-11-04T00:28:38.641Z,17.20
2017-11-04T00:31:06.313Z,15.97
2017-11-04T00:33:33.905Z,13.30
2017-11-04T00:36:01.510Z,15.67
2017-11-04T00:38:29.169Z,17.00
2017-11-04T00:40:56.717Z,16.20
2017-11-04T00:43:24.279Z,16.63
2017-11-04T00:45:51.860Z,17.70
2017-11-04T00:48:19.434Z,17.20
2017-11-04T00:50:47.032Z,16.23
2017-11-04T00:53:14.718Z,15.27
2017-11-04T00:55:42.297Z,15.20
2017-11-04T00:58:09.882Z,18.47
2017-11-04T01:00:37.505Z,15.87
2017-11-04T01:03:05.377Z,17.70
2017-11-04T01:05:32.934Z,15.07
2017-11-04T01:08:00.557Z,16.33
2017-11-04T01:10:28.190Z,16.63
2017-11-04T01:12:55.815Z,15.70
2017-11-04T01:15:23.395Z,19.63
2017-11-04T01:17:50.980Z,17.03
2017-11-04T01:20:18.576Z,17.90
2017-11-04T01:22:46.286Z,17.10
2017-11-04T01:25:13.877Z,16.90
2017-11-04T01:27:41.467Z,15.87
2017-11-04T01:30:09.198Z,14.97
2017-11-04T01:32:36.802Z,16.53
2017-11-04T01:35:04.399Z,14.40
2017-11-04T01:37:32.117Z,21.40
2017-11-04T01:39:59.687Z,19.80
2017-11-04T01:42:27.248Z,18.63
2017-11-04T01:44:54.849Z,16.37
2017-11-04T01:47:22.456Z,16.67
2017-11-04T01:49:50.049Z,16.90
2017-11-04T01:52:17.680Z,16.50
2017-11-04T01:54:45.294Z,16.50
2017-11-04T01:57:12.898Z,16.80
2017-11-04T01:59:40.484Z,17.50
2017-11-04T02:02:08.063Z,17.40
2017-11-04T02:04:35.647Z,15.97
2017-11-04T02:07:03.256Z,15.87
2017-11-04T02:09:30.853Z,19.27
2017-11-04T02:11:58.511Z,18.63
2017-11-04T02:14:26.088Z,17.77
2017-11-04T02:16:53.704Z,18.17
2017-11-04T02:19:21.299Z,19.43
2017-11-04T02:21:48.881Z,18.23
2017-11-04T02:24:16.500Z,17.30
2017-11-04T02:26:44.086Z,17.60
2017-11-04T02:29:12.258Z,16.90
2017-11-04T02:31:39.851Z,19.50
2017-11-04T02:34:07.472Z,18.30
2017-11-04T02:36:35.037Z,18.87
2017-11-04T02:39:02.661Z,18.67
2017-11-04T02:41:30.250Z,18.50
2017-11-04T02:43:57.817Z,19.43
2017-11-04T02:46:25.380Z,17.70
2017-11-04T02:48:52.964Z,15.67
2017-11-04T02:51:21.643Z,17.40
2017-11-04T02:53:49.315Z,16.80
2017-11-04T02:56:17.010Z,17.50
2017-11-04T02:58:44.585Z,17.10
2017-11-04T03:01:12.287Z,17.77
2017-11-04T03:03:42.255Z,17.23
2017-11-04T03:06:09.898Z,16.40
2017-11-04T03:08:37.501Z,17.50
2017-11-04T03:11:05.356Z,16.67
2017-11-04T03:13:33.355Z,17.47
2017-11-04T03:16:01.796Z,16.60
2017-11-04T03:18:29.384Z,18.50
2017-11-04T03:20:56.975Z,16.03
2017-11-04T03:23:24.739Z,18.90
2017-11-04T03:25:52.341Z,20.03
2017-11-04T03:28:19.919Z,16.77
2017-11-04T03:30:47.539Z,19.83
2017-11-04T03:33:15.126Z,17.60
2017-11-04T03:35:44.274Z,17.90
2017-11-04T03:38:11.879Z,17.40
2017-11-04T03:40:40.523Z,15.90
2017-11-04T03:43:10.385Z,15.60
2017-11-04T03:45:38.869Z,16.80
2017-11-04T03:48:06.423Z,16.97
2017-11-04T03:50:34.054Z,17.47
2017-11-04T03:53:01.889Z,18.90
2017-11-04T03:55:29.601Z,19.40
2017-11-04T03:57:58.245Z,19.63
2017-11-04T04:00:25.817Z,16.33
2017-11-04T04:02:53.389Z,17.90
2017-11-04T04:05:21.694Z,15.63
2017-11-04T04:07:49.499Z,16.57
2017-11-04T04:10:17.086Z,18.60
2017-11-04T04:12:44.693Z,17.03
2017-11-04T04:15:12.831Z,16.70
2017-11-04T04:17:40.381Z,16.77
2017-11-04T04:20:07.940Z,17.23
2017-11-04T04:22:35.529Z,18.17
2017-11-04T04:25:03.102Z,17.20
2017-11-04T04:27:31.676Z,17.30
2017-11-04T04:29:59.285Z,15.97
2017-11-04T04:32:26.859Z,15.50
2017-11-04T04:34:57.273Z,15.03
2017-11-04T04:37:24.870Z,17.07
2017-11-04T04:39:52.491Z,20.97
2017-11-04T04:42:20.077Z,18.80
2017-11-04T04:44:47.697Z,16.97
2017-11-04T04:47:15.307Z,19.77
2017-11-04T04:49:42.891Z,16.70
2017-11-04T04:52:10.519Z,18.87
2017-11-04T04:54:38.093Z,17.40
2017-11-04T04:57:05.761Z,20.30
2017-11-04T04:59:33.390Z,13.93
2017-11-04T05:02:00.952Z,16.23
2017-11-04T05:04:28.495Z,15.63
2017-11-04T05:06:56.103Z,16.97
2017-11-04T05:09:24.457Z,15.73
2017-11-04T05:11:52.424Z,14.67
2017-11-04T05:14:20.065Z,15.57
2017-11-04T05:16:47.649Z,14.27
2017-11-04T05:19:15.213Z,15.37
2017-11-04T05:21:42.846Z,16.47
2017-11-04T05:24:10.669Z,15.20
2017-11-04T05:26:38.266Z,14.87
2017-11-04T05:29:05.949Z,16.00
2017-11-04T05:31:35.188Z,14.37
2017-11-04T05:34:02.794Z,14.97
2017-11-04T05:36:30.386Z,15.20
2017-11-04T05:38:57.952Z,15.23
2017-11-04T05:41:25.561Z,16.90
2017-11-04T05:43:53.884Z,16.20
2017-11-04T05:46:22.442Z,14.47
2017-11-04T05:48:50.034Z,14.93
2017-11-04T05:51:17.603Z,15.70
2017-11-04T05:53:45.185Z,13.07
2017-11-04T05:56:12.899Z,13.67
2017-11-04T05:58:40.524Z,15.60
2017-11-04T06:01:08.150Z,12.90
2017-11-04T06:03:36.704Z,14.20
2017-11-04T06:06:04.328Z,14.97
2017-11-04T06:08:31.949Z,13.17
2017-11-04T06:10:59.539Z,13.00
2017-11-04T06:13:27.972Z,15.17
2017-11-04T06:15:55.547Z,15.03
2017-11-04T06:18:23.314Z,15.73
2017-11-04T06:20:51.172Z,15.70
2017-11-04T06:23:18.788Z,16.97
2017-11-04T06:25:46.358Z,14.20
2017-11-04T06:28:13.994Z,15.47
2017-11-04T06:30:41.585Z,15.70
2017-11-04T06:33:09.695Z,17.27
2017-11-04T06:35:37.535Z,15.80
2017-11-04T06:38:05.089Z,15.33
2017-11-04T06:40:32.669Z,15.50
2017-11-04T06:43:00.266Z,16.17
2017-11-04T06:45:27.853Z,17.17
2017-11-04T06:47:55.411Z,18.07
2017-11-04T06:50:22.996Z,18.53
2017-11-04T06:52:50.545Z,18.57
2017-11-04T06:55:18.102Z,17.73
2017-11-04T06:57:45.670Z,19.20
2017-11-04T07:00:13.241Z,20.17
2017-11-04T07:02:40.864Z,17.80
2017-11-04T07:05:08.575Z,19.77
2017-11-04T07:07:36.153Z,20.03
2017-11-04T07:10:06.816Z,20.90
2017-11-04T07:12:34.404Z,18.60
2017-11-04T07:15:03.049Z,21.00
2017-11-04T07:17:30.655Z,28.33
2017-11-04T07:19:59.353Z,36.30
2017-11-04T07:22:29.053Z,49.13
2017-11-04T07:24:56.730Z,48.03
2017-11-04T07:27:24.898Z,57.00
2017-11-04T07:29:54.054Z,83.30
2017-11-04T07:32:22.243Z,49.70
2017-11-04T07:34:49.905Z,31.90
2017-11-04T07:37:17.497Z,34.00
2017-11-04T07:39:45.103Z,37.03
2017-11-04T07:42:12.746Z,34.80
2017-11-04T07:44:42.000Z,18.97
2017-11-04T07:47:09.750Z,18.43
2017-11-04T07:49:37.319Z,21.27
2017-11-04T07:52:08.605Z,24.43
2017-11-04T07:54:37.875Z,17.50
2017-11-04T07:57:07.057Z,16.67
2017-11-04T07:59:34.660Z,17.50
2017-11-04T08:02:02.213Z,17.20
2017-11-04T08:04:29.802Z,13.17
2017-11-04T08:06:57.360Z,13.13
2017-11-04T08:09:25.816Z,15.00
2017-11-04T08:11:53.376Z,14.30
2017-11-04T08:14:21.127Z,11.23
2017-11-04T08:16:48.819Z,11.33
2017-11-04T08:19:17.333Z,10.90
2017-11-04T08:21:44.913Z,14.17
2017-11-04T08:24:12.466Z,10.70
2017-11-04T08:26:40.013Z,9.83
2017-11-04T08:29:07.646Z,11.23
2017-11-04T08:31:35.240Z,12.37
2017-11-04T08:34:02.821Z,11.10
2017-11-04T08:36:30.386Z,13.00
2017-11-04T08:38:57.960Z,11.13
2017-11-04T08:41:25.810Z,11.20
2017-11-04T08:43:53.594Z,11.70
2017-11-04T08:46:22.642Z,9.40
2017-11-04T08:48:50.229Z,10.50
2017-11-04T08:51:21.621Z,11.50
2017-11-04T08:53:49.246Z,14.30
2017-11-04T08:56:16.862Z,12.80
2017-11-04T08:58:44.421Z,12.70
2017-11-04T09:01:12.011Z,11.90
2017-11-04T09:03:39.572Z,11.60
2017-11-04T09:06:07.306Z,10.27
2017-11-04T09:08:34.877Z,11.47
2017-11-04T09:11:02.458Z,12.47
2017-11-04T09:13:30.064Z,13.70
2017-11-04T09:15:57.645Z,13.27
2017-11-04T09:18:25.692Z,44.43
2017-11-04T09:20:53.322Z,29.23
2017-11-04T09:23:20.921Z,15.30
2017-11-04T09:25:48.580Z,13.27
2017-11-04T09:28:16.274Z,16.00
2017-11-04T09:33:35.416Z,16.77
2017-11-04T09:36:02.997Z,25.93
2017-11-04T09:38:30.621Z,16.70
2017-11-04T09:40:58.230Z,18.07
2017-11-04T09:43:27.744Z,17.10
2017-11-04T09:45:55.314Z,18.43
2017-11-04T09:48:23.619Z,19.10
2017-11-04T09:50:51.197Z,17.37
2017-11-04T09:53:18.869Z,20.13
2017-11-04T09:55:46.803Z,19.90
2017-11-04T09:58:14.360Z,21.60
2017-11-04T10:00:41.956Z,23.07
2017-11-04T10:03:09.847Z,19.30
2017-11-04T10:05:38.598Z,20.17
2017-11-04T10:08:06.206Z,18.77
2017-11-04T10:10:33.791Z,20.67
2017-11-04T10:13:01.376Z,18.13
2017-11-04T10:15:29.012Z,19.03
2017-11-04T10:17:56.604Z,17.10
2017-11-04T10:20:24.188Z,16.87
2017-11-04T10:22:51.814Z,17.67
2017-11-04T10:25:19.714Z,18.13
2017-11-04T10:27:47.316Z,19.03
2017-11-04T10:30:14.911Z,18.97
2017-11-04T10:32:42.493Z,29.37
2017-11-04T10:35:10.460Z,22.00
2017-11-04T10:37:38.073Z,17.07
2017-11-04T10:40:05.629Z,17.23
2017-11-04T10:42:43.077Z,36.20
2017-11-04T10:45:11.044Z,19.87
2017-11-04T10:47:38.631Z,13.03
2017-11-04T10:50:06.239Z,13.30
2017-11-04T10:52:33.825Z,14.23
2017-11-04T10:55:01.421Z,12.20
2017-11-04T10:57:29.033Z,13.13
2017-11-04T10:59:57.031Z,13.03
2017-11-04T11:02:24.659Z,13.70
2017-11-04T11:04:52.313Z,14.50
2017-11-04T11:07:20.126Z,15.40
2017-11-04T11:09:47.829Z,14.60
2017-11-04T11:12:15.598Z,15.80
2017-11-04T11:14:45.860Z,14.60
2017-11-04T11:17:16.747Z,14.77
2017-11-04T11:19:45.249Z,14.03
2017-11-04T11:22:12.812Z,17.40
2017-11-04T11:24:40.383Z,16.17
2017-11-04T11:27:08.114Z,16.17
2017-11-04T11:29:35.740Z,16.20
2017-11-04T11:32:06.375Z,15.27
2017-11-04T11:34:33.983Z,15.43
2017-11-04T11:37:01.562Z,16.80
2017-11-04T11:39:29.810Z,16.10
2017-11-04T11:41:57.424Z,19.27
2017-11-04T11:44:25.066Z,20.97
2017-11-04T11:46:53.562Z,20.33
2017-11-04T11:49:21.493Z,22.27
2017-11-04T11:51:49.947Z,20.17
2017-11-04T11:54:17.594Z,16.93
2017-11-04T11:56:45.207Z,16.50
2017-11-04T11:59:14.352Z,17.17
2017-11-04T12:01:42.113Z,18.63
2017-11-04T12:04:09.878Z,21.70
2017-11-04T12:06:37.499Z,16.70
2017-11-04T12:09:05.451Z,17.00
2017-11-04T12:11:33.103Z,19.70
2017-11-04T12:14:00.675Z,17.43
2017-11-04T12:16:28.261Z,17.43
2017-11-04T12:18:55.881Z,18.03
2017-11-04T12:21:23.457Z,19.10
2017-11-04T12:23:51.061Z,18.47
2017-11-04T12:26:18.816Z,17.30
2017-11-04T12:28:46.389Z,20.80
2017-11-04T12:31:14.744Z,20.10
2017-11-04T12:33:42.583Z,20.00
2017-11-04T12:36:10.283Z,19.60
2017-11-04T12:38:37.868Z,18.63
2017-11-04T12:41:05.857Z,21.60
2017-11-04T12:43:38.545Z,20.50
2017-11-04T12:46:06.297Z,18.97
2017-11-04T12:48:33.851Z,21.83
2017-11-04T12:51:01.544Z,21.10
2017-11-04T12:53:29.152Z,19.50
2017-11-04T12:55:56.746Z,21.87
2017-11-04T12:58:24.327Z,18.20
2017-11-04T13:00:53.430Z,18.97
2017-11-04T13:03:21.372Z,19.97
2017-11-04T13:05:49.105Z,19.53
2017-11-04T13:08:16.809Z,21.97
2017-11-04T13:10:44.450Z,19.27
2017-11-04T13:13:12.569Z,19.63
2017-11-04T13:15:41.204Z,19.33
2017-11-04T13:18:08.761Z,21.03
2017-11-04T13:20:36.334Z,20.63
2017-11-04T13:23:04.051Z,22.80
2017-11-04T13:25:31.632Z,24.37
2017-11-04T13:27:59.219Z,23.07
2017-11-04T13:30:26.838Z,22.10
2017-11-04T13:32:54.452Z,20.70
2017-11-04T13:35:22.262Z,21.47
2017-11-04T13:37:49.848Z,21.83
2017-11-04T13:40:17.469Z,22.57
2017-11-04T13:42:45.030Z,20.50
2017-11-04T13:45:13.106Z,19.83
2017-11-04T13:47:40.786Z,23.67
2017-11-04T13:50:08.437Z,20.90
2017-11-04T13:52:36.023Z,22.40
2017-11-04T13:55:03.663Z,22.73
2017-11-04T13:57:31.316Z,24.47
2017-11-04T13:59:58.900Z,23.60
2017-11-04T14:02:27.568Z,25.23
2017-11-04T14:04:55.175Z,24.63
2017-11-04T14:07:23.172Z,25.93
2017-11-04T14:09:50.850Z,26.07
2017-11-04T14:12:18.520Z,26.87
2017-11-04T14:14:46.099Z,26.70
2017-11-04T14:17:14.052Z,23.90
2017-11-04T14:19:42.192Z,25.90
2017-11-04T14:22:09.951Z,26.37
2017-11-04T14:24:37.549Z,26.07
2017-11-04T14:27:05.625Z,25.27
2017-11-04T14:29:33.231Z,26.90
2017-11-04T14:32:00.849Z,27.47
2017-11-04T14:34:28.422Z,28.50
2017-11-04T14:36:56.063Z,26.73
2017-11-04T14:39:23.623Z,27.90
2017-11-04T14:41:51.210Z,28.20
2017-11-04T14:44:18.826Z,27.67
2017-11-04T14:46:46.396Z,29.53
2017-11-04T14:49:14.007Z,30.43
2017-11-04T14:51:41.587Z,29.57
2017-11-04T14:54:09.294Z,32.13
2017-11-04T14:56:36.863Z,30.47
2017-11-04T14:59:04.443Z,28.93
2017-11-04T15:01:33.855Z,23.60
2017-11-04T15:04:03.699Z,23.23
2017-11-04T15:06:31.323Z,22.37
2017-11-04T15:08:58.904Z,22.43
2017-11-04T15:11:26.457Z,21.47
2017-11-04T15:13:56.821Z,21.53
2017-11-04T15:16:24.986Z,20.60
2017-11-04T15:18:52.618Z,27.90
2017-11-04T15:21:20.187Z,26.23
2017-11-04T15:23:47.819Z,31.17
2017-11-04T15:26:15.379Z,34.33
2017-11-04T15:28:42.970Z,34.97
2017-11-04T15:31:10.878Z,46.53
2017-11-04T15:33:38.469Z,24.90
2017-11-04T15:36:06.753Z,25.10
2017-11-04T15:38:34.394Z,17.63
2017-11-04T15:41:02.233Z,17.83
2017-11-04T15:43:29.883Z,15.77
2017-11-04T15:45:57.564Z,16.10
2017-11-04T15:48:25.173Z,15.53
2017-11-04T15:50:52.750Z,15.10
2017-11-04T15:53:22.500Z,16.43
2017-11-04T15:55:50.133Z,16.20
2017-11-04T15:58:17.686Z,17.00
2017-11-04T16:00:45.279Z,17.77
2017-11-04T16:03:13.122Z,19.47
2017-11-04T16:05:40.676Z,34.13
2017-11-04T16:08:08.291Z,24.60
2017-11-04T16:10:35.854Z,27.57
2017-11-04T16:13:03.478Z,33.40
2017-11-04T16:15:31.094Z,29.17
2017-11-04T16:18:01.835Z,24.27
2017-11-04T16:20:30.587Z,26.93
2017-11-04T16:22:58.284Z,23.70
2017-11-04T16:25:25.888Z,23.50
2017-11-04T16:27:53.480Z,16.63
2017-11-04T16:30:21.098Z,17.07
2017-11-04T16:32:48.677Z,30.67
2017-11-04T16:35:16.273Z,34.60
2017-11-04T16:37:44.025Z,22.77
2017-11-04T16:40:11.670Z,27.90
2017-11-04T16:42:39.237Z,31.93
2017-11-04T16:45:07.047Z,31.90
2017-11-04T16:47:35.453Z,31.37
2017-11-04T16:50:03.033Z,27.70
2017-11-04T16:52:30.636Z,31.70
2017-11-04T16:55:09.536Z,37.33
2017-11-04T16:57:37.125Z,37.10
2017-11-04T17:00:05.234Z,31.93
2017-11-04T17:02:32.789Z,29.07
2017-11-04T17:05:00.345Z,27.30
2017-11-04T17:07:28.028Z,22.33
2017-11-04T17:10:10.722Z,25.00
2017-11-04T17:12:38.359Z,52.90
2017-11-04T17:15:06.013Z,46.33
2017-11-04T17:17:33.575Z,37.83
2017-11-04T17:20:01.165Z,36.90
2017-11-04T17:22:28.797Z,40.33
2017-11-04T17:24:56.478Z,38.60
2017-11-04T17:27:24.043Z,33.07
2017-11-04T17:29:51.646Z,31.60
2017-11-04T17:32:19.898Z,32.27
2017-11-04T17:34:47.478Z,31.70
2017-11-04T17:37:15.041Z,31.57
2017-11-04T17:39:42.666Z,22.73
2017-11-04T17:42:10.390Z,23.17
2017-11-04T17:44:37.969Z,24.00
2017-11-04T17:47:05.783Z,23.93
2017-11-04T17:49:44.213Z,33.90
2017-11-04T17:55:03.832Z,29.37
2017-11-04T17:57:31.856Z,34.87
2017-11-04T17:59:59.429Z,32.33
2017-11-04T18:02:27.063Z,40.30
2017-11-04T18:04:54.621Z,35.17
2017-11-04T18:07:22.313Z,33.73
2017-11-04T18:09:50.019Z,26.33
2017-11-04T18:12:17.680Z,28.33
2017-11-04T18:14:45.236Z,32.10
2017-11-04T18:17:12.928Z,54.77
2017-11-04T18:19:40.477Z,49.30
2017-11-04T18:22:08.155Z,22.80
2017-11-04T18:24:37.552Z,17.67
2017-11-04T18:27:05.727Z,21.30
2017-11-04T18:29:33.322Z,18.60
2017-11-04T18:32:00.914Z,15.60
2017-11-04T18:34:28.483Z,14.20
2017-11-04T18:36:56.078Z,16.53
2017-11-04T18:39:23.909Z,28.10
2017-11-04T18:41:51.496Z,47.80
2017-11-04T18:44:19.086Z,42.30
2017-11-04T18:46:46.698Z,51.50
2017-11-04T18:49:14.290Z,46.03
2017-11-04T18:51:41.874Z,42.77
2017-11-04T18:54:09.471Z,37.47
2017-11-04T18:56:37.075Z,34.07
2017-11-04T18:59:04.624Z,31.37
2017-11-04T19:01:32.213Z,28.27
2017-11-04T19:03:59.784Z,20.93
2017-11-04T19:06:27.354Z,14.10
2017-11-04T19:08:56.626Z,14.30
2017-11-04T19:11:24.950Z,16.10
2017-11-04T19:13:53.070Z,14.53
2017-11-04T19:16:20.694Z,19.80
2017-11-04T19:18:48.296Z,27.73
2017-11-04T19:21:16.604Z,19.63
2017-11-04T19:23:44.224Z,20.63
2017-11-04T19:26:11.779Z,22.27
2017-11-04T19:28:39.345Z,25.50
2017-11-04T19:31:08.882Z,24.77
2017-11-04T19:33:36.441Z,19.43
2017-11-04T19:36:04.221Z,24.30
2017-11-04T19:38:31.822Z,29.83
2017-11-04T19:40:59.424Z,27.93
2017-11-04T19:43:27.352Z,29.13
2017-11-04T19:45:55.094Z,20.60
2017-11-04T19:48:22.686Z,37.90
2017-11-04T19:50:50.261Z,33.57
2017-11-04T19:53:17.852Z,33.80
2017-11-04T19:55:45.409Z,36.80
2017-11-04T19:58:13.213Z,31.30
2017-11-04T20:03:31.940Z,19.37
2017-11-04T20:05:59.520Z,14.47
2017-11-04T20:08:27.129Z,14.60
2017-11-04T20:10:54.721Z,11.40
2017-11-04T20:13:22.383Z,12.87
2017-11-04T20:15:49.935Z,13.13
2017-11-04T20:18:17.522Z,12.57
2017-11-04T20:20:45.079Z,14.20
2017-11-04T20:23:12.817Z,20.57
2017-11-04T20:25:41.270Z,14.43
2017-11-04T20:28:08.870Z,16.70
2017-11-04T20:30:36.448Z,24.77
2017-11-04T20:33:04.078Z,26.00
2017-11-04T20:35:31.654Z,23.90
2017-11-04T20:37:59.240Z,22.50
2017-11-04T20:40:27.801Z,23.73
2017-11-04T20:42:55.578Z,27.57
2017-11-04T20:45:23.186Z,22.80
2017-11-04T20:47:50.773Z,15.27
2017-11-04T20:50:18.348Z,20.20
2017-11-04T20:52:45.921Z,12.90
2017-11-04T20:55:13.780Z,13.40
2017-11-04T20:57:41.387Z,12.13
2017-11-04T21:00:08.978Z,13.87
2017-11-04T21:02:36.635Z,14.07
2017-11-04T21:05:05.201Z,13.80
2017-11-04T21:07:32.799Z,17.80
2017-11-04T21:10:00.497Z,10.47
2017-11-04T21:12:28.090Z,7.90
2017-11-04T21:14:55.666Z,9.73
2017-11-04T21:17:23.275Z,12.50
2017-11-04T21:19:50.922Z,13.00
2017-11-04T21:22:18.611Z,19.50
2017-11-04T21:24:46.209Z,23.13
2017-11-04T21:27:13.956Z,21.30
2017-11-04T21:29:41.536Z,15.80
2017-11-04T21:32:09.118Z,14.07
2017-11-04T21:34:36.724Z,12.40
2017-11-04T21:37:04.407Z,10.77
2017-11-04T21:39:32.010Z,12.27
2017-11-04T21:41:59.600Z,14.80
2017-11-04T21:44:27.206Z,12.33
2017-11-04T21:46:54.781Z,12.57
2017-11-04T21:49:22.625Z,14.57
2017-11-04T21:51:50.214Z,15.10
2017-11-04T21:54:18.032Z,15.70
2017-11-04T21:56:45.610Z,12.90
2017-11-04T21:59:13.223Z,9.60
2017-11-04T22:01:40.804Z,12.50
2017-11-04T22:04:08.614Z,11.50
2017-11-04T22:06:36.205Z,15.77
2017-11-04T22:09:03.997Z,14.57
2017-11-04T22:11:31.712Z,12.73
2017-11-04T22:13:59.298Z,9.97
2017-11-04T22:16:26.863Z,8.67
2017-11-04T22:18:54.460Z,9.07
2017-11-04T22:21:22.048Z,8.53
2017-11-04T22:23:49.782Z,9.27
2017-11-04T22:26:17.463Z,12.97
2017-11-04T22:28:45.100Z,9.73
2017-11-04T22:31:12.711Z,9.50
2017-11-04T22:33:50.306Z,9.00
2017-11-04T22:36:17.882Z,7.80
2017-11-04T22:38:45.694Z,9.70
2017-11-04T22:41:13.300Z,8.30
2017-11-04T22:43:40.918Z,9.00
2017-11-04T22:46:08.548Z,7.13
2017-11-04T22:48:36.307Z,11.80
2017-11-04T22:51:04.043Z,20.20
2017-11-04T22:53:31.597Z,31.50
2017-11-04T22:55:59.217Z,11.40
2017-11-04T22:58:26.765Z,11.70
2017-11-04T23:00:54.435Z,7.70
2017-11-04T23:03:22.040Z,10.30
2017-11-04T23:05:49.631Z,10.13
2017-11-04T23:08:19.111Z,9.20
2017-11-04T23:10:50.566Z,12.57
2017-11-04T23:13:18.208Z,8.77
2017-11-04T23:15:45.816Z,7.50
2017-11-04T23:18:19.871Z,8.00
2017-11-04T23:20:49.001Z,8.10
2017-11-04T23:23:16.563Z,9.57
2017-11-04T23:25:44.160Z,11.37
2017-11-04T23:28:11.798Z,9.63
2017-11-04T23:30:39.425Z,9.10
2017-11-04T23:33:07.110Z,10.20
2017-11-04T23:35:34.804Z,9.20
2017-11-04T23:38:02.406Z,13.77
2017-11-04T23:40:30.047Z,10.13
2017-11-04T23:42:57.836Z,8.70
2017-11-04T23:45:25.421Z,9.37
2017-11-04T23:47:52.999Z,8.90
2017-11-04T23:50:20.652Z,10.10
2017-11-04T23:52:48.238Z,11.90
2017-11-04T23:55:16.274Z,9.80
2017-11-04T23:57:43.865Z,12.00
